Time;durP1;ratioP1;P1;durP2;ratioP2;P2;SDS_P1;SDS_P2;PMS_P1;PMS_P2;Temp;Humidity;BMP_temperature;BMP_pressure;BME280_temperature;BME280_humidity;BME280_pressure;Samples;Min_cycle;Max_cycle;Signal;HPM_P1;HPM_P2
2022/02/01 00:02:00;;;;;;;;;;;;;;;18.25;57.99;99959.56;5135156;27;1658;-58
2022/02/01 00:04:37;;;;;;;;;;;;;;;18.26;57.99;99961.25;5134956;27;1610;-58
2022/02/01 00:07:14;;;;;;;;;;;;;;;18.24;58.14;99947.19;5128258;27;1557;-57
2022/02/01 00:09:50;;;;;;;;;;;;;;;18.17;58.36;99951.44;5116280;28;1717;-58
2022/02/01 00:12:34;;;;;;;;;;;;;;;18.13;58.78;99944.72;5133952;28;1905;-58
2022/02/01 00:15:23;;;;;;;;;;;;;;;18.08;58.54;99950.53;5134946;28;1622;-57
2022/02/01 00:18:16;;;;;;;;;;;;;;;18.11;58.43;99949.38;5131696;28;1582;-57
2022/02/01 00:33:08;;;;;;;;;;;;;;;18.12;58.26;99947.53;5124117;28;1598;-57
2022/02/01 00:34:58;;;;;;;;;;;;;;;18.11;58.32;99954.72;5133061;28;1570;-56
2022/02/01 00:37:26;;;;;;;;;;;;;;;18.11;58.79;99951.22;5134641;28;1777;-56
2022/02/01 00:39:58;;;;;;;;;;;;;;;18.12;58.26;99936.81;5134548;28;1391;-57
2022/02/01 00:42:25;;;;;;;;;;;;;;;18.13;58.14;99938.53;5130446;28;1368;-58
2022/02/01 00:44:51;;;;;;;;;;;;;;;18.07;58.47;99939.97;5134712;28;1367;-57
2022/02/01 00:47:18;;;;;;;;;;;;;;;18.07;58.17;99948.00;5135172;28;1003;-58
2022/02/01 00:49:45;;;;;;;;;;;;;;;18.04;58.35;99940.25;5134643;28;1772;-58
2022/02/01 00:52:11;;;;;;;;;;;;;;;18.07;58.38;99932.78;5125703;28;1974;-59
2022/02/01 00:54:40;;;;;;;;;;;;;;;18.03;58.12;99927.88;5134748;28;1485;-58
2022/02/01 00:57:11;;;;;;;;;;;;;;;18.02;58.19;99926.19;5134829;27;1371;-57
2022/02/01 00:59:37;;;;;;;;;;;;;;;18.05;58.02;99923.22;5138868;27;1015;-58
2022/02/01 01:02:04;;;;;;;;;;;;;;;18.04;58.22;99937.56;5138252;27;1649;-58
2022/02/01 01:04:30;;;;;;;;;;;;;;;18.01;58.28;99935.22;5135732;27;1619;-58
2022/02/01 01:06:57;;;;;;;;;;;;;;;18.02;58.37;99926.19;5138316;27;1434;-57
2022/02/01 01:09:23;;;;;;;;;;;;;;;18.02;58.18;99924.34;5138877;27;1231;-57
2022/02/01 01:11:54;;;;;;;;;;;;;;;18.06;58.03;99935.59;5138056;27;1985;-57
2022/02/01 01:17:43;;;;;;;;;;;;;;;17.99;58.23;99921.16;5134635;27;2264;-57
2022/02/01 01:44:48;;;;;;;;;;;;;;;17.99;57.99;99911.28;5137524;27;610;-58
2022/02/01 01:53:10;;;;;;;;;;;;;;;18.10;57.57;99891.47;5138047;27;720;-58
2022/02/01 01:55:36;;;;;;;;;;;;;;;18.23;57.10;99885.78;5134449;27;1705;-57
2022/02/01 01:58:03;;;;;;;;;;;;;;;18.27;56.97;99869.25;5137672;27;1574;-57
2022/02/01 02:00:44;;;;;;;;;;;;;;;18.31;56.70;99883.19;5135574;27;1492;-58
2022/02/01 02:03:12;;;;;;;;;;;;;;;18.37;56.57;99873.72;5137297;27;1579;-56
2022/02/01 02:05:38;;;;;;;;;;;;;;;18.38;56.62;99878.91;5136535;27;1510;-57
2022/02/01 02:08:05;;;;;;;;;;;;;;;18.40;56.85;99873.38;5137916;27;971;-57
2022/02/01 02:10:37;;;;;;;;;;;;;;;18.40;56.70;99870.72;5136653;27;1915;-56
2022/02/01 02:14:17;;;;;;;;;;;;;;;18.37;56.69;99882.56;5137286;27;1624;-58
2022/02/01 02:15:56;;;;;;;;;;;;;;;18.37;56.25;99876.38;5130006;27;1765;-58
2022/02/01 02:18:24;;;;;;;;;;;;;;;18.33;56.79;99872.34;5137294;27;1617;-58
2022/02/01 02:20:52;;;;;;;;;;;;;;;18.27;57.20;99866.59;5136844;27;1407;-57
2022/02/01 02:23:19;;;;;;;;;;;;;;;18.25;57.03;99876.59;5133402;27;1006;-57
2022/02/01 02:25:46;;;;;;;;;;;;;;;18.22;56.96;99874.25;5136773;27;1664;-57
2022/02/01 02:28:14;;;;;;;;;;;;;;;18.15;57.18;99865.13;5136472;27;1366;-58
2022/02/01 02:30:41;;;;;;;;;;;;;;;18.21;56.83;99872.53;5136614;27;1972;-56
2022/02/01 02:33:11;;;;;;;;;;;;;;;18.25;56.87;99867.75;5136589;27;1618;-57
2022/02/01 02:35:48;;;;;;;;;;;;;;;18.29;56.69;99882.50;5136367;27;1311;-57
2022/02/01 02:38:25;;;;;;;;;;;;;;;18.32;56.81;99868.78;5137179;27;1341;-57
2022/02/01 02:41:03;;;;;;;;;;;;;;;18.27;56.71;99863.06;5136741;27;1653;-58
2022/02/01 02:46:14;;;;;;;;;;;;;;;18.20;56.90;99875.38;5131898;27;1563;-57
2022/02/01 02:48:40;;;;;;;;;;;;;;;18.14;56.97;99882.16;5136462;27;1370;-57
2022/02/01 02:51:07;;;;;;;;;;;;;;;18.13;57.23;99880.50;5136437;27;1985;-57
2022/02/01 02:53:35;;;;;;;;;;;;;;;18.09;57.12;99879.94;5136877;27;1412;-57
2022/02/01 02:56:06;;;;;;;;;;;;;;;18.11;56.78;99871.78;5135975;27;1549;-57
2022/02/01 02:58:33;;;;;;;;;;;;;;;18.13;56.88;99875.16;5136047;27;1598;-57
2022/02/01 03:00:59;;;;;;;;;;;;;;;18.15;57.00;99875.00;5131675;27;1482;-57
2022/02/01 03:03:26;;;;;;;;;;;;;;;18.10;57.23;99864.72;5135395;27;1558;-57
2022/02/01 03:05:53;;;;;;;;;;;;;;;18.07;57.02;99859.69;5131511;27;1586;-56
2022/02/01 03:08:22;;;;;;;;;;;;;;;18.12;56.99;99873.44;5135110;27;1316;-57
2022/02/01 03:10:50;;;;;;;;;;;;;;;18.12;56.71;99860.06;5132670;27;1976;-58
2022/02/01 03:13:21;;;;;;;;;;;;;;;18.11;57.03;99865.59;5135908;27;1518;-57
2022/02/01 03:15:54;;;;;;;;;;;;;;;18.08;57.06;99861.38;5130637;27;1682;-58
2022/02/01 03:21:04;;;;;;;;;;;;;;;17.97;57.34;99859.75;5127444;27;1457;-58
2022/02/01 03:23:31;;;;;;;;;;;;;;;17.98;57.42;99834.69;5136598;27;1064;-57
2022/02/01 03:25:59;;;;;;;;;;;;;;;17.96;57.48;99842.00;5135664;27;1572;-57
2022/02/01 03:28:25;;;;;;;;;;;;;;;17.99;57.28;99843.56;5135389;27;1240;-57
2022/02/01 03:30:52;;;;;;;;;;;;;;;18.01;56.87;99839.75;5135683;27;1964;-58
2022/02/01 03:33:18;;;;;;;;;;;;;;;18.05;57.16;99845.63;5135946;27;2104;-57
2022/02/01 03:35:45;;;;;;;;;;;;;;;18.00;56.93;99835.38;5135371;27;1412;-58
2022/02/01 03:38:11;;;;;;;;;;;;;;;18.03;57.18;99840.44;5136361;27;1158;-58
2022/02/01 03:40:38;;;;;;;;;;;;;;;17.99;57.12;99846.25;5135542;27;1556;-57
2022/02/01 03:43:06;;;;;;;;;;;;;;;17.97;57.11;99834.84;5136260;27;1019;-57
2022/02/01 03:45:32;;;;;;;;;;;;;;;17.98;56.80;99844.53;5131211;27;1722;-58
2022/02/01 03:47:59;;;;;;;;;;;;;;;17.98;57.10;99833.84;5135557;27;1574;-56
2022/02/01 03:50:25;;;;;;;;;;;;;;;18.00;57.07;99821.16;5135097;27;1463;-57
2022/02/01 03:52:52;;;;;;;;;;;;;;;18.02;56.97;99825.34;5134907;27;1905;-57
2022/02/01 03:55:19;;;;;;;;;;;;;;;18.03;56.99;99820.88;5134933;27;1501;-58
2022/02/01 03:57:46;;;;;;;;;;;;;;;18.00;56.92;99839.88;5135350;27;1456;-58
2022/02/01 04:00:15;;;;;;;;;;;;;;;17.99;56.96;99838.22;5135308;27;1386;-58
2022/02/01 04:02:41;;;;;;;;;;;;;;;18.00;57.09;99823.84;5133338;27;1447;-57
2022/02/01 04:05:08;;;;;;;;;;;;;;;18.02;56.84;99832.53;5135710;27;1071;-58
2022/02/01 04:07:35;;;;;;;;;;;;;;;17.99;56.89;99838.22;5134924;27;1525;-57
2022/02/01 04:10:02;;;;;;;;;;;;;;;17.99;57.05;99824.84;5134890;28;1520;-56
2022/02/01 04:12:29;;;;;;;;;;;;;;;17.94;56.98;99817.25;5134985;28;1909;-58
2022/02/01 04:14:57;;;;;;;;;;;;;;;17.89;57.29;99828.41;5129875;28;1571;-57
2022/02/01 04:17:25;;;;;;;;;;;;;;;17.85;57.46;99811.00;5128746;28;1542;-57
2022/02/01 04:19:52;;;;;;;;;;;;;;;17.84;57.18;99833.38;5134751;28;1517;-57
2022/02/01 04:22:18;;;;;;;;;;;;;;;17.91;57.25;99848.84;5134874;28;1415;-57
2022/02/01 04:24:46;;;;;;;;;;;;;;;17.87;57.23;99843.78;5118540;28;1506;-57
2022/02/01 04:27:21;;;;;;;;;;;;;;;17.90;57.15;99831.91;5135134;28;1503;-58
2022/02/01 04:29:53;;;;;;;;;;;;;;;17.89;57.16;99846.31;5135051;28;1079;-57
2022/02/01 04:32:20;;;;;;;;;;;;;;;17.92;57.37;99850.50;5137703;27;2055;-58
2022/02/01 04:34:54;;;;;;;;;;;;;;;17.92;57.14;99866.56;5139222;27;1713;-57
2022/02/01 04:37:21;;;;;;;;;;;;;;;17.89;57.02;99855.16;5138849;27;1832;-57
2022/02/01 04:39:48;;;;;;;;;;;;;;;17.89;57.07;99848.97;5139643;27;1830;-58
2022/02/01 04:42:15;;;;;;;;;;;;;;;17.90;57.01;99853.31;5138498;27;1336;-58
2022/02/01 04:44:41;;;;;;;;;;;;;;;17.93;57.07;99854.88;5127895;27;1535;-58
2022/02/01 04:47:08;;;;;;;;;;;;;;;17.96;56.52;99841.19;5138102;27;1588;-58
2022/02/01 04:49:35;;;;;;;;;;;;;;;17.94;56.82;99849.34;5138855;27;1646;-57
2022/02/01 04:52:03;;;;;;;;;;;;;;;17.90;56.49;99847.97;5134101;27;1898;-57
2022/02/01 04:54:29;;;;;;;;;;;;;;;17.95;56.89;99855.56;5138920;27;1511;-58
2022/02/01 04:56:56;;;;;;;;;;;;;;;17.85;57.02;99837.72;5138948;27;1273;-58
2022/02/01 04:59:22;;;;;;;;;;;;;;;17.84;57.20;99837.88;5138149;27;1466;-58
2022/02/01 05:01:49;;;;;;;;;;;;;;;17.80;57.21;99831.94;5138172;27;1657;-58
2022/02/01 05:04:19;;;;;;;;;;;;;;;17.81;56.96;99830.13;5138185;27;1263;-58
2022/02/01 05:06:47;;;;;;;;;;;;;;;17.83;57.22;99842.41;5138495;27;1434;-57
2022/02/01 05:09:15;;;;;;;;;;;;;;;17.85;56.79;99813.66;5139040;27;1297;-56
2022/02/01 05:11:41;;;;;;;;;;;;;;;17.85;57.13;99821.69;5137794;27;1975;-58
2022/02/01 05:14:13;;;;;;;;;;;;;;;17.89;56.00;99839.13;5136419;27;1615;-58
2022/02/01 05:16:46;;;;;;;;;;;;;;;17.97;56.94;99837.53;5135818;27;1289;-56
2022/02/01 05:19:22;;;;;;;;;;;;;;;17.88;56.85;99828.56;5084138;27;10977;-58
2022/02/01 05:21:49;;;;;;;;;;;;;;;17.83;57.18;99826.34;5100030;28;1355;-57
2022/02/01 05:24:19;;;;;;;;;;;;;;;17.78;57.46;99831.25;5096594;28;1402;-57
2022/02/01 05:26:46;;;;;;;;;;;;;;;17.80;57.24;99842.66;5096513;28;1691;-57
2022/02/01 05:29:13;;;;;;;;;;;;;;;17.76;57.36;99829.72;5096801;28;1461;-57
2022/02/01 05:31:39;;;;;;;;;;;;;;;17.77;57.61;99837.63;5095906;28;1906;-57
2022/02/01 05:34:06;;;;;;;;;;;;;;;17.77;57.63;99842.13;5095380;28;1261;-58
2022/02/01 05:36:32;;;;;;;;;;;;;;;17.76;57.96;99845.78;5095763;28;1403;-57
2022/02/01 05:38:59;;;;;;;;;;;;;;;17.81;57.57;99839.00;5096613;28;1390;-58
2022/02/01 05:41:27;;;;;;;;;;;;;;;17.80;57.43;99837.28;5095864;28;1395;-57
2022/02/01 05:43:54;;;;;;;;;;;;;;;17.95;56.62;99856.41;5094664;28;1307;-56
2022/02/01 05:46:20;;;;;;;;;;;;;;;18.48;55.48;99860.06;5096089;28;1270;-58
2022/02/01 05:48:47;;;;;;;;;;;;;;;19.12;53.99;99842.00;5096822;28;1572;-58
2022/02/01 05:51:14;;;;;;;;;;;;;;;19.43;53.13;99846.84;5097925;28;1530;-58
2022/02/01 05:53:40;;;;;;;;;;;;;;;19.63;53.71;99842.88;5097218;28;1969;-56
2022/02/01 05:56:07;;;;;;;;;;;;;;;19.69;53.08;99844.09;5096144;28;1528;-58
2022/02/01 05:58:35;;;;;;;;;;;;;;;19.65;52.88;99853.47;5093157;28;1548;-57
2022/02/01 06:01:01;;;;;;;;;;;;;;;19.72;52.97;99878.69;5096399;28;1576;-57
2022/02/01 06:03:28;;;;;;;;;;;;;;;19.62;52.77;99867.22;5096063;28;1577;-58
2022/02/01 06:05:54;;;;;;;;;;;;;;;19.67;53.35;99879.09;5090892;28;1504;-56
2022/02/01 06:08:21;;;;;;;;;;;;;;;19.76;57.19;99880.03;5094703;28;1403;-58
2022/02/01 06:10:47;;;;;;;;;;;;;;;19.85;54.30;99879.03;5093326;28;1504;-58
2022/02/01 06:13:14;;;;;;;;;;;;;;;19.76;54.52;99884.56;5090552;28;1910;-56
2022/02/01 06:15:42;;;;;;;;;;;;;;;19.86;55.57;99880.72;5087880;28;1695;-58
2022/02/01 06:18:08;;;;;;;;;;;;;;;19.88;54.95;99885.09;5095159;28;1385;-56
2022/02/01 06:20:35;;;;;;;;;;;;;;;19.84;55.97;99887.28;5095517;28;1449;-56
2022/02/01 06:23:02;;;;;;;;;;;;;;;19.84;55.94;99898.84;5092450;28;1151;-56
2022/02/01 06:28:09;;;;;;;;;;;;;;;19.95;55.61;99896.84;5094227;28;1716;-57
2022/02/01 06:30:36;;;;;;;;;;;;;;;20.03;56.40;99903.09;5094604;28;1564;-54
2022/02/01 06:33:04;;;;;;;;;;;;;;;20.01;55.96;99899.72;5088638;28;1910;-56
2022/02/01 06:35:30;;;;;;;;;;;;;;;20.05;56.17;99927.06;5094984;28;1425;-56
2022/02/01 06:37:57;;;;;;;;;;;;;;;20.06;55.87;99932.28;5096334;28;1842;-55
2022/02/01 06:40:24;;;;;;;;;;;;;;;20.08;55.67;99934.81;5091639;28;1664;-55
2022/02/01 06:42:50;;;;;;;;;;;;;;;20.08;55.54;99940.19;5090692;28;1520;-59
2022/02/01 06:45:17;;;;;;;;;;;;;;;20.08;55.94;99942.88;5087651;28;1770;-57
2022/02/01 06:47:43;;;;;;;;;;;;;;;20.14;56.83;99936.00;5090418;28;1442;-57
2022/02/01 06:50:13;;;;;;;;;;;;;;;20.11;56.31;99944.38;5094915;28;1580;-56
2022/02/01 06:52:39;;;;;;;;;;;;;;;20.14;56.70;99947.56;5095750;28;1971;-57
2022/02/01 06:55:06;;;;;;;;;;;;;;;20.20;56.68;99957.66;5094635;28;1239;-57
2022/02/01 06:57:36;;;;;;;;;;;;;;;20.29;55.04;99955.00;5095219;28;1437;-56
2022/02/01 07:00:04;;;;;;;;;;;;;;;20.21;56.11;99962.03;5090756;28;1715;-60
2022/02/01 07:02:30;;;;;;;;;;;;;;;20.29;54.67;99955.00;5095551;28;1576;-56
2022/02/01 07:04:57;;;;;;;;;;;;;;;20.24;56.20;99963.56;5095213;28;1346;-56
2022/02/01 07:07:25;;;;;;;;;;;;;;;20.27;54.99;99950.66;5095351;28;1695;-57
2022/02/01 07:09:51;;;;;;;;;;;;;;;20.26;56.25;99943.59;5094205;28;1639;-59
2022/02/01 07:12:18;;;;;;;;;;;;;;;20.08;56.29;99937.50;5093231;28;1906;-59
2022/02/01 07:14:44;;;;;;;;;;;;;;;19.96;56.88;99928.06;5093598;28;1279;-57
2022/02/01 07:17:11;;;;;;;;;;;;;;;19.89;56.26;99948.47;5089936;28;1560;-58
2022/02/01 07:19:37;;;;;;;;;;;;;;;19.79;57.20;99946.75;5092559;28;1758;-58
2022/02/01 07:22:04;;;;;;;;;;;;;;;19.68;57.08;99950.53;5094383;28;1499;-58
2022/02/01 07:24:37;;;;;;;;;;;;;;;19.57;56.71;99940.06;5086375;28;1493;-58
2022/02/01 07:27:11;;;;;;;;;;;;;;;19.58;57.60;99946.31;5095175;28;1374;-59
2022/02/01 07:29:37;;;;;;;;;;;;;;;19.43;57.93;99941.50;5095321;28;1218;-58
2022/02/01 07:32:04;;;;;;;;;;;;;;;19.29;57.93;99952.81;5094376;28;1906;-58
2022/02/01 07:34:32;;;;;;;;;;;;;;;19.19;58.25;99962.81;5094044;28;1754;-58
2022/02/01 07:36:59;;;;;;;;;;;;;;;19.15;58.45;99969.47;5090503;28;1636;-59
2022/02/01 07:39:25;;;;;;;;;;;;;;;19.07;58.24;99976.44;5094989;28;2000;-59
2022/02/01 07:41:53;;;;;;;;;;;;;;;19.02;58.14;99970.72;5094942;28;1320;-59
2022/02/01 07:44:20;;;;;;;;;;;;;;;18.99;57.56;99981.72;5086515;28;1711;-58
2022/02/01 07:46:46;;;;;;;;;;;;;;;18.99;58.17;99983.56;5094562;28;1531;-59
2022/02/01 07:49:17;;;;;;;;;;;;;;;19.00;57.33;100004.88;5094589;28;1556;-59
2022/02/01 07:51:44;;;;;;;;;;;;;;;18.95;57.55;100003.63;5093995;28;1627;-55
2022/02/01 07:54:10;;;;;;;;;;;;;;;18.96;57.81;100000.81;5094065;28;1910;-57
2022/02/01 07:56:37;;;;;;;;;;;;;;;18.96;56.99;100011.53;5094551;28;1775;-58
2022/02/01 07:59:04;;;;;;;;;;;;;;;18.98;57.84;100017.56;5093052;28;1730;-59
2022/02/01 08:01:31;;;;;;;;;;;;;;;18.92;57.25;100030.72;5093597;28;1540;-59
2022/02/01 08:03:57;;;;;;;;;;;;;;;18.86;57.34;100016.09;5092088;28;1442;-68
2022/02/01 08:06:24;;;;;;;;;;;;;;;18.85;57.59;100020.63;5089696;28;1587;-60
2022/02/01 08:08:50;;;;;;;;;;;;;;;18.87;57.36;100031.19;5094390;28;1292;-61
2022/02/01 08:11:17;;;;;;;;;;;;;;;18.84;57.46;100031.47;5092862;28;1757;-60
2022/02/01 08:19:29;;;;;;;;;;;;;;;18.75;58.33;100027.84;5093829;28;1212;-59
2022/02/01 08:22:06;;;;;;;;;;;;;;;18.77;57.89;100038.44;5093562;28;1272;-59
2022/02/01 08:24:32;;;;;;;;;;;;;;;18.69;58.12;100031.16;5093736;28;1424;-59
2022/02/01 08:26:59;;;;;;;;;;;;;;;18.72;57.77;100030.00;5092883;28;1377;-59
2022/02/01 08:29:26;;;;;;;;;;;;;;;18.64;57.87;100034.28;5091706;28;1468;-59
2022/02/01 08:31:54;;;;;;;;;;;;;;;18.62;58.49;100025.56;5086803;28;1375;-61
2022/02/01 08:34:20;;;;;;;;;;;;;;;18.72;58.43;100040.72;5093105;28;1981;-61
2022/02/01 08:36:47;;;;;;;;;;;;;;;18.64;58.43;100042.31;5094307;28;1505;-60
2022/02/01 08:39:14;;;;;;;;;;;;;;;18.56;58.69;100042.25;5094543;28;1516;-60
2022/02/01 08:41:40;;;;;;;;;;;;;;;18.52;58.54;100050.69;5091495;28;1652;-62
2022/02/01 08:44:07;;;;;;;;;;;;;;;18.53;58.72;100029.13;5094439;28;1801;-63
2022/02/01 08:46:34;;;;;;;;;;;;;;;18.57;58.33;100027.00;5093875;28;1580;-63
2022/02/01 08:49:01;;;;;;;;;;;;;;;18.52;58.51;100030.09;5094096;28;1631;-60
2022/02/01 08:51:37;;;;;;;;;;;;;;;18.48;58.46;100023.38;5093691;28;1576;-62
2022/02/01 08:54:11;;;;;;;;;;;;;;;18.48;59.02;100026.06;5088950;28;1984;-62
2022/02/01 08:59:22;;;;;;;;;;;;;;;18.54;58.62;100038.00;5093682;28;1355;-61
2022/02/01 09:01:48;;;;;;;;;;;;;;;18.59;58.63;100051.78;5092802;28;1747;-60
2022/02/01 09:04:16;;;;;;;;;;;;;;;18.73;57.90;100027.16;5083714;28;1287;-60
2022/02/01 09:06:43;;;;;;;;;;;;;;;18.69;57.64;100026.63;5089600;28;1357;-60
2022/02/01 09:09:09;;;;;;;;;;;;;;;18.78;56.97;100030.25;5084861;28;1770;-60
2022/02/01 09:11:36;;;;;;;;;;;;;;;18.89;56.36;100021.16;5079999;28;1636;-60
2022/02/01 09:14:02;;;;;;;;;;;;;;;18.89;57.34;100013.13;5089866;28;1968;-60
2022/02/01 09:16:29;;;;;;;;;;;;;;;18.98;57.24;100014.03;5090235;28;1509;-60
2022/02/01 09:18:55;;;;;;;;;;;;;;;19.05;56.23;100017.78;5094549;28;1066;-60
2022/02/01 09:21:23;;;;;;;;;;;;;;;19.07;56.50;100008.59;5094211;28;1477;-60
2022/02/01 09:23:50;;;;;;;;;;;;;;;19.06;55.93;100000.72;5083258;28;1334;-60
2022/02/01 09:26:17;;;;;;;;;;;;;;;19.09;55.95;100016.50;5090018;28;1374;-59
2022/02/01 09:28:43;;;;;;;;;;;;;;;19.08;56.71;100026.38;5093650;28;1505;-59
2022/02/01 09:31:10;;;;;;;;;;;;;;;19.05;56.76;100018.63;5089142;28;1347;-59
2022/02/01 09:33:37;;;;;;;;;;;;;;;19.01;56.36;100021.78;5094155;28;1909;-59
2022/02/01 09:36:05;;;;;;;;;;;;;;;18.99;56.79;100027.28;5093568;28;1569;-60
2022/02/01 09:38:34;;;;;;;;;;;;;;;18.99;56.50;100026.44;5093678;28;1359;-60
2022/02/01 09:41:01;;;;;;;;;;;;;;;18.97;56.63;100026.59;5093778;28;1695;-59
2022/02/01 09:43:28;;;;;;;;;;;;;;;18.91;56.13;100023.69;5093314;28;1322;-60
2022/02/01 09:45:55;;;;;;;;;;;;;;;18.92;56.68;100020.88;5093705;28;1528;-60
2022/02/01 09:48:22;;;;;;;;;;;;;;;18.87;56.32;100018.63;5092931;28;1531;-59
2022/02/01 09:50:48;;;;;;;;;;;;;;;18.85;56.40;100027.81;5093367;28;1407;-59
2022/02/01 09:53:15;;;;;;;;;;;;;;;18.85;56.78;100014.44;5095870;28;1918;-60
2022/02/01 09:55:43;;;;;;;;;;;;;;;18.88;55.66;100030.22;5096146;28;1801;-60
2022/02/01 09:58:11;;;;;;;;;;;;;;;18.83;55.98;100032.50;5096129;28;1540;-59
2022/02/01 10:00:44;;;;;;;;;;;;;;;18.78;56.48;100032.06;5087200;28;1548;-60
2022/02/01 10:03:14;;;;;;;;;;;;;;;18.73;56.72;100019.13;5096307;28;1551;-59
2022/02/01 10:05:43;;;;;;;;;;;;;;;18.83;56.71;100021.78;5096433;28;1651;-60
2022/02/01 10:08:09;;;;;;;;;;;;;;;18.64;56.57;100020.91;5093564;28;1470;-60
2022/02/01 10:10:36;;;;;;;;;;;;;;;18.54;56.93;100022.78;5090727;28;1508;-69
2022/02/01 10:13:12;;;;;;;;;;;;;;;18.55;56.87;100010.25;5090055;28;1974;-59
2022/02/01 10:15:38;;;;;;;;;;;;;;;18.55;57.19;100024.47;5090765;28;1469;-59
2022/02/01 10:18:08;;;;;;;;;;;;;;;18.52;56.97;100030.09;5092347;28;1508;-60
2022/02/01 10:20:36;;;;;;;;;;;;;;;18.40;57.41;100018.78;5091164;28;1533;-61
2022/02/01 10:23:18;;;;;;;;;;;;;;;18.48;57.65;100026.06;5095993;28;1373;-59
2022/02/01 10:25:57;;;;;;;;;;;;;;;18.46;57.77;100014.66;5084151;28;1708;-59
2022/02/01 10:28:27;;;;;;;;;;;;;;;18.51;56.83;100020.41;5093930;28;1583;-65
2022/02/01 10:30:54;;;;;;;;;;;;;;;18.59;57.18;100008.94;5092909;28;1507;-64
2022/02/01 10:36:10;;;;;;;;;;;;;;;18.55;57.72;100015.59;5093130;28;1566;-60
2022/02/01 10:38:36;;;;;;;;;;;;;;;18.55;57.92;100026.31;5094214;28;1379;-60
2022/02/01 10:41:04;;;;;;;;;;;;;;;18.52;58.00;100008.69;5091525;28;1394;-61
2022/02/01 10:43:33;;;;;;;;;;;;;;;18.50;58.13;100008.00;5095556;28;1399;-61
2022/02/01 10:46:06;;;;;;;;;;;;;;;18.64;56.56;100018.22;5095871;28;1430;-65
2022/02/01 10:48:33;;;;;;;;;;;;;;;18.64;57.53;100002.16;5089723;28;1461;-70
2022/02/01 10:51:01;;;;;;;;;;;;;;;18.55;57.94;99997.69;5094640;28;1683;-60
2022/02/01 10:53:28;;;;;;;;;;;;;;;18.56;58.14;100015.47;5094945;28;1905;-68
2022/02/01 10:55:55;;;;;;;;;;;;;;;18.53;58.25;100010.41;5091733;28;1489;-64
2022/02/01 10:58:22;;;;;;;;;;;;;;;18.49;58.23;100020.56;5095765;28;1429;-63
2022/02/01 11:00:50;;;;;;;;;;;;;;;18.63;58.26;100029.91;5095083;28;1338;-59
2022/02/01 11:03:17;;;;;;;;;;;;;;;18.58;58.68;100029.53;5086592;28;1462;-66
2022/02/01 11:05:49;;;;;;;;;;;;;;;18.50;58.78;100021.38;5095318;28;1417;-62
2022/02/01 11:08:17;;;;;;;;;;;;;;;18.46;58.79;100010.16;5095609;28;1191;-62
2022/02/01 11:10:45;;;;;;;;;;;;;;;18.50;59.63;100021.38;5093037;28;1627;-60
2022/02/01 11:13:12;;;;;;;;;;;;;;;18.55;59.91;100008.41;5095035;28;1906;-61
2022/02/01 11:15:39;;;;;;;;;;;;;;;18.54;60.13;100008.56;5095083;28;1666;-61
2022/02/01 11:18:10;;;;;;;;;;;;;;;18.57;59.93;99990.34;5093700;28;1373;-58
2022/02/01 11:20:37;;;;;;;;;;;;;;;18.58;59.62;99984.03;5095101;28;1350;-61
2022/02/01 11:23:04;;;;;;;;;;;;;;;18.58;60.21;99978.66;5095364;28;1144;-57
2022/02/01 11:25:42;;;;;;;;;;;;;;;18.58;59.89;99980.47;5094710;28;1655;-60
2022/02/01 11:28:14;;;;;;;;;;;;;;;18.56;60.13;99980.66;5091308;28;1723;-62
2022/02/01 11:30:41;;;;;;;;;;;;;;;18.62;59.67;99988.06;5086782;28;1438;-58
2022/02/01 11:33:09;;;;;;;;;;;;;;;18.58;59.69;99980.47;5094590;28;1584;-58
2022/02/01 11:35:37;;;;;;;;;;;;;;;18.58;59.56;99978.66;5091856;28;1906;-60
2022/02/01 11:38:05;;;;;;;;;;;;;;;18.65;59.70;99976.22;5095434;28;1023;-59
2022/02/01 11:40:35;;;;;;;;;;;;;;;18.67;60.06;99980.41;5094093;28;1483;-55
2022/02/01 11:43:05;;;;;;;;;;;;;;;18.71;60.02;99980.13;5094173;28;1543;-61
2022/02/01 11:45:33;;;;;;;;;;;;;;;18.67;59.71;99980.41;5094686;28;1501;-61
2022/02/01 11:48:00;;;;;;;;;;;;;;;18.79;59.37;99982.88;5094202;28;1384;-61
2022/02/01 11:50:27;;;;;;;;;;;;;;;18.79;59.44;99978.38;5081048;28;1310;-56
2022/02/01 11:52:57;;;;;;;;;;;;;;;18.65;59.43;99982.41;5094305;28;1593;-59
2022/02/01 11:55:29;;;;;;;;;;;;;;;18.68;58.83;99974.06;5094114;28;1909;-56
2022/02/01 11:58:00;;;;;;;;;;;;;;;18.81;59.34;99980.91;5081988;28;1676;-55
2022/02/01 12:00:27;;;;;;;;;;;;;;;18.72;59.50;99981.78;5094191;28;1491;-60
2022/02/01 12:02:56;;;;;;;;;;;;;;;18.64;60.44;99974.50;5088197;28;1568;-60
2022/02/01 12:05:27;;;;;;;;;;;;;;;18.69;60.68;99986.44;5084907;28;1521;-61
2022/02/01 12:08:06;;;;;;;;;;;;;;;18.67;60.91;99985.75;5076703;28;1516;-60
2022/02/01 12:10:34;;;;;;;;;;;;;;;18.71;60.84;99988.97;5093996;28;1715;-60
2022/02/01 12:13:01;;;;;;;;;;;;;;;18.66;60.73;99978.75;5094323;28;1388;-59
2022/02/01 12:15:29;;;;;;;;;;;;;;;18.73;60.73;99978.97;5092302;28;1906;-61
2022/02/01 12:17:58;;;;;;;;;;;;;;;18.72;60.85;99995.19;5083514;28;1532;-59
2022/02/01 12:20:25;;;;;;;;;;;;;;;18.67;61.54;99995.63;5090320;28;1575;-59
2022/02/01 12:23:15;;;;;;;;;;;;;;;18.62;61.96;99987.22;5094058;28;1219;-59
2022/02/01 12:25:42;;;;;;;;;;;;;;;18.65;61.47;99997.63;5094109;28;1611;-60
2022/02/01 12:28:16;;;;;;;;;;;;;;;18.58;60.73;100000.09;5091757;28;1660;-60
2022/02/01 12:30:42;;;;;;;;;;;;;;;18.32;59.13;99999.09;5085873;28;1473;-59
2022/02/01 12:33:16;;;;;;;;;;;;;;;18.01;58.73;100004.78;5088006;28;1346;-60
2022/02/01 12:35:42;;;;;;;;;;;;;;;17.85;58.89;100016.09;5094142;28;1906;-60
2022/02/01 12:38:15;;;;;;;;;;;;;;;17.70;58.24;100003.13;5093715;28;1430;-60
2022/02/01 12:40:42;;;;;;;;;;;;;;;17.56;55.99;100016.13;5089674;28;1591;-60
2022/02/01 12:43:16;;;;;;;;;;;;;;;17.64;56.30;99992.19;5086819;28;1620;-60
2022/02/01 12:45:57;;;;;;;;;;;;;;;17.73;54.31;100014.56;5085750;28;1493;-60
2022/02/01 12:48:24;;;;;;;;;;;;;;;17.85;51.65;100006.22;5082182;28;1568;-60
2022/02/01 12:50:57;;;;;;;;;;;;;;;17.85;50.74;99995.53;5093588;28;1403;-60
2022/02/01 12:53:25;;;;;;;;;;;;;;;18.10;51.24;100011.88;5096589;28;1402;-60
2022/02/01 12:55:52;;;;;;;;;;;;;;;18.34;50.60;100008.66;5097403;28;1929;-60
2022/02/01 12:58:18;;;;;;;;;;;;;;;18.59;50.55;100025.84;5092444;28;1441;-60
2022/02/01 13:00:49;;;;;;;;;;;;;;;18.64;50.95;100015.53;5092768;28;1447;-59
2022/02/01 13:03:16;;;;;;;;;;;;;;;18.82;51.44;100022.75;5088263;28;1564;-60
2022/02/01 13:05:43;;;;;;;;;;;;;;;19.01;52.09;100019.09;5094946;28;1508;-59
2022/02/01 13:16:46;;;;;;;;;;;;;;;19.22;54.08;100030.34;5096869;28;1548;-59
2022/02/01 13:21:57;;;;;;;;;;;;;;;19.05;55.88;100024.00;5096948;28;1622;-60
2022/02/01 13:24:30;;;;;;;;;;;;;;;19.10;55.08;100034.25;5091702;28;1274;-59
2022/02/01 13:26:58;;;;;;;;;;;;;;;19.09;55.78;100024.53;5096761;28;1496;-60
2022/02/01 13:29:25;;;;;;;;;;;;;;;19.00;56.47;100026.31;5097182;28;1598;-59
2022/02/01 13:31:53;;;;;;;;;;;;;;;18.96;55.76;100022.25;5096673;28;1830;-60
2022/02/01 13:34:30;;;;;;;;;;;;;;;18.95;56.87;100031.25;5095244;28;1906;-61
2022/02/01 13:36:58;;;;;;;;;;;;;;;18.97;55.83;100040.00;5097348;28;1691;-60
2022/02/01 13:39:25;;;;;;;;;;;;;;;18.92;56.32;100039.63;5097487;28;1219;-61
2022/02/01 13:42:00;;;;;;;;;;;;;;;18.87;57.28;100044.59;5091892;28;1247;-59
2022/02/01 13:44:29;;;;;;;;;;;;;;;19.01;56.46;100054.75;5094401;28;1790;-60
2022/02/01 13:47:00;;;;;;;;;;;;;;;19.01;57.28;100056.59;5094582;28;1802;-57
2022/02/01 13:49:26;;;;;;;;;;;;;;;19.04;57.86;100051.78;5092559;28;1452;-62
2022/02/01 13:51:53;;;;;;;;;;;;;;;18.97;57.93;100069.47;5091893;28;1655;-59
2022/02/01 13:54:20;;;;;;;;;;;;;;;18.88;58.16;100067.72;5096742;28;1909;-59
2022/02/01 13:56:50;;;;;;;;;;;;;;;18.83;57.79;100059.28;5096702;28;1507;-56
2022/02/01 13:59:21;;;;;;;;;;;;;;;18.71;58.71;100063.13;5095461;28;1535;-59
2022/02/01 14:01:48;;;;;;;;;;;;;;;18.66;58.96;100069.78;5091885;28;1626;-57
2022/02/01 14:04:19;;;;;;;;;;;;;;;18.73;58.38;100083.41;5086249;28;1350;-57
2022/02/01 14:06:51;;;;;;;;;;;;;;;18.77;57.41;100082.13;5093983;28;1433;-56
2022/02/01 14:09:32;;;;;;;;;;;;;;;18.73;58.47;100074.53;5087292;28;1330;-58
2022/02/01 14:12:24;;;;;;;;;;;;;;;18.72;58.23;100096.94;5095508;28;1219;-58
2022/02/01 14:23:50;;;;;;;;;;;;;;;18.74;58.89;100093.16;5096626;28;658;-59
2022/02/01 14:26:39;;;;;;;;;;;;;;;18.73;59.14;100093.28;5089385;28;1597;-57